Time;durP1;ratioP1;P1;durP2;ratioP2;P2;SDS_P1;SDS_P2;PMS_P1;PMS_P2;Temp;Humidity;BMP_temperature;BMP_pressure;BME280_temperature;BME280_humidity;BME280_pressure;Samples;Min_cycle;Max_cycle;Signal;HPM_P1;HPM_P2
2023/01/17 00:00:26;;;;;;;9.63;5.53;;;;;;;5.93;100.00;91817.94;5071868;28;20094;-69
2023/01/17 00:02:53;;;;;;;9.32;5.32;;;;;;;5.88;100.00;91820.38;5071746;28;20052;-69
2023/01/17 00:11:04;;;;;;;8.68;5.78;;;;;;;5.87;100.00;91809.41;5028939;28;20061;-69
2023/01/17 00:13:31;;;;;;;9.38;5.47;;;;;;;5.86;100.00;91812.16;5029107;28;20053;-69
2023/01/17 00:15:57;;;;;;;7.68;5.18;;;;;;;5.88;100.00;91808.41;5047445;28;20447;-69
2023/01/17 00:18:24;;;;;;;8.20;5.25;;;;;;;5.91;100.00;91807.19;5071472;28;20048;-69
2023/01/17 00:26:20;;;;;;;;;;;;;;;5.91;100.00;91811.50;5071278;28;20047;-69
2023/01/17 01:35:47;;;;;;;6.65;4.25;;;;;;;6.25;100.00;91738.72;5069803;28;20124;-69
2023/01/17 01:38:14;;;;;;;8.48;4.75;;;;;;;6.30;100.00;91732.19;5068853;28;20528;-69
2023/01/17 01:40:45;;;;;;;7.75;4.82;;;;;;;6.27;100.00;91723.97;5069584;28;20044;-69
2023/01/17 01:43:14;;;;;;;8.20;4.20;;;;;;;6.26;100.00;91735.16;5069729;28;20056;-69
2023/01/17 01:45:46;;;;;;;6.93;4.55;;;;;;;6.32;100.00;91720.75;5069283;28;20049;-69
2023/01/17 01:48:23;;;;;;;9.43;4.97;;;;;;;6.31;100.00;91731.19;5069917;28;20044;-69
2023/01/17 01:50:51;;;;;;;8.07;4.88;;;;;;;6.16;100.00;91719.66;5069674;28;20098;-70
2023/01/17 01:53:19;;;;;;;6.35;4.47;;;;;;;6.37;100.00;91737.94;5069591;28;20086;-69
2023/01/17 01:55:49;;;;;;;7.45;4.60;;;;;;;6.41;100.00;91723.75;5069416;28;20101;-69
2023/01/17 01:58:21;;;;;;;7.80;4.28;;;;;;;6.40;100.00;91717.88;5069374;28;20052;-69
2023/01/17 02:00:49;;;;;;;6.97;4.65;;;;;;;6.44;100.00;91709.78;5069289;28;20443;-69
2023/01/17 02:03:19;;;;;;;6.40;3.92;;;;;;;6.46;100.00;91712.88;5069177;28;20040;-70
2023/01/17 02:05:46;;;;;;;5.80;4.70;;;;;;;6.46;100.00;91716.22;5069420;28;20080;-69
2023/01/17 02:08:16;;;;;;;6.45;4.07;;;;;;;6.45;100.00;91726.66;5069263;28;20044;-69
2023/01/17 02:10:43;;;;;;;6.53;4.07;;;;;;;6.47;100.00;91717.78;5068826;28;20052;-70
2023/01/17 02:13:11;;;;;;;6.68;4.30;;;;;;;6.49;100.00;91720.88;5069219;28;20047;-70
2023/01/17 02:15:44;;;;;;;7.57;4.07;;;;;;;6.52;100.00;91727.31;5069062;28;20102;-69
2023/01/17 02:18:22;;;;;;;8.82;3.95;;;;;;;6.57;100.00;91735.06;5069083;28;20094;-70
2023/01/17 02:20:59;;;;;;;6.80;4.28;;;;;;;6.60;100.00;91744.84;5069104;28;20455;-69
2023/01/17 02:23:57;;;;;;;9.07;5.13;;;;;;;6.65;100.00;91741.63;5068735;28;20055;-69
2023/01/17 02:26:52;;;;;;;8.73;3.60;;;;;;;6.70;100.00;91748.63;5068857;28;20053;-69
2023/01/17 02:30:01;;;;;;;6.57;4.07;;;;;;;6.71;100.00;91750.19;5068696;28;20496;-69
2023/01/17 02:32:38;;;;;;;7.35;3.97;;;;;;;6.72;100.00;91752.53;5068880;28;20048;-69
2023/01/17 02:35:13;;;;;;;5.38;3.10;;;;;;;6.78;100.00;91754.19;5068895;28;20520;-69
2023/01/17 02:37:50;;;;;;;8.18;3.70;;;;;;;6.79;100.00;91747.28;5068701;28;20587;-69
2023/01/17 02:40:23;;;;;;;7.28;4.53;;;;;;;6.15;100.00;91649.22;5068889;28;20101;-70
2023/01/17 02:42:54;;;;;;;7.35;3.83;;;;;;;6.81;100.00;91732.53;5068882;28;20390;-70
2023/01/17 02:45:21;;;;;;;6.72;3.40;;;;;;;6.81;100.00;91732.53;5068669;28;20443;-70
2023/01/17 02:47:50;;;;;;;8.50;4.40;;;;;;;6.78;100.00;91725.31;5068614;28;20102;-71
2023/01/17 02:50:20;;;;;;;6.80;4.80;;;;;;;6.77;100.00;91721.97;5068489;28;20496;-70
2023/01/17 02:53:05;;;;;;;6.53;4.22;;;;;;;6.78;100.00;91721.00;5068667;28;20040;-71
2023/01/17 02:55:45;;;;;;;7.40;4.13;;;;;;;6.81;100.00;91719.78;5068648;28;20094;-70
2023/01/17 02:58:26;;;;;;;9.90;4.38;;;;;;;6.84;100.00;91705.81;5068730;28;20056;-70
2023/01/17 03:01:06;;;;;;;8.60;4.43;;;;;;;6.86;100.00;91712.25;5068561;28;20044;-70
2023/01/17 03:03:46;;;;;;;7.72;4.22;;;;;;;6.81;100.00;91714.69;5068710;28;20028;-70
2023/01/17 03:06:17;;;;;;;7.68;3.38;;;;;;;6.80;100.00;91701.13;5068608;28;20044;-71
2023/01/17 03:08:46;;;;;;;7.45;3.90;;;;;;;6.81;100.00;91700.13;5068389;28;20052;-70
2023/01/17 03:11:13;;;;;;;6.05;3.72;;;;;;;6.76;100.00;91694.91;5068583;28;20049;-70
2023/01/17 03:13:41;;;;;;;6.82;3.97;;;;;;;6.74;100.00;91693.59;5068433;28;20166;-70
2023/01/17 03:16:12;;;;;;;8.82;4.18;;;;;;;6.67;100.00;91684.28;5068088;28;20505;-70
2023/01/17 03:18:40;;;;;;;8.73;3.97;;;;;;;6.64;100.00;91694.16;5068503;28;20299;-70
2023/01/17 03:21:07;;;;;;;8.43;4.28;;;;;;;6.61;100.00;91697.94;5068781;28;20079;-70
2023/01/17 03:23:34;;;;;;;6.63;4.00;;;;;;;6.67;100.00;91694.47;5068408;28;20041;-69
2023/01/17 03:26:00;;;;;;;7.75;3.75;;;;;;;6.67;100.00;91699.59;5068235;28;20056;-69
2023/01/17 03:28:27;;;;;;;7.93;3.70;;;;;;;6.68;100.00;91710.56;5067995;28;20090;-70
2023/01/17 03:30:54;;;;;;;5.07;3.17;;;;;;;6.68;100.00;91715.69;5068458;28;20049;-70
2023/01/17 03:33:23;;;;;;;6.93;4.00;;;;;;;6.70;100.00;91731.53;5068077;28;20166;-69
2023/01/17 03:35:53;;;;;;;5.20;3.60;;;;;;;6.71;100.00;91724.66;5067965;28;20052;-69
2023/01/17 03:38:20;;;;;;;4.90;2.90;;;;;;;6.71;100.00;91719.56;5068239;28;20508;-69
2023/01/17 03:40:46;;;;;;;5.07;2.88;;;;;;;6.66;100.00;91715.09;5067918;28;20049;-69
2023/01/17 03:43:13;;;;;;;5.07;3.33;;;;;;;6.71;100.00;91717.00;5068011;28;20040;-69
2023/01/17 03:45:40;;;;;;;9.00;3.80;;;;;;;6.74;100.00;91703.78;5068179;28;20048;-69
2023/01/17 03:48:06;;;;;;;6.60;3.33;;;;;;;6.77;100.00;91698.25;5067864;28;20037;-69
2023/01/17 03:50:33;;;;;;;6.45;3.40;;;;;;;6.75;100.00;91690.06;5068278;28;20044;-69
2023/01/17 03:53:01;;;;;;;8.35;3.97;;;;;;;6.77;100.00;91673.50;5067908;28;20463;-69
2023/01/17 03:55:28;;;;;;;5.70;3.00;;;;;;;6.75;100.00;91690.06;5067808;28;20226;-69
2023/01/17 03:57:55;;;;;;;6.68;3.78;;;;;;;6.60;100.00;91665.75;5067734;28;20520;-69
2023/01/17 04:00:21;;;;;;;6.20;2.97;;;;;;;6.77;100.00;91693.91;5069051;28;20045;-69
2023/01/17 04:02:48;;;;;;;5.65;3.20;;;;;;;6.82;100.00;91693.25;5071338;28;20493;-69
2023/01/17 04:05:15;;;;;;;5.90;3.17;;;;;;;6.89;100.00;91711.00;5071401;28;20493;-69
2023/01/17 04:07:42;;;;;;;5.80;2.50;;;;;;;6.92;100.00;91698.56;5071417;28;20439;-70
2023/01/17 04:10:11;;;;;;;3.47;2.15;;;;;;;6.94;100.00;91701.66;5071579;28;20048;-69
2023/01/17 04:12:38;;;;;;;6.63;2.30;;;;;;;7.01;100.00;91726.31;5071288;28;20123;-70
2023/01/17 04:15:05;;;;;;;3.53;2.00;;;;;;;7.03;100.00;91740.41;5071320;28;20049;-70
2023/01/17 04:17:32;;;;;;;3.50;2.17;;;;;;;7.12;100.00;91740.06;5071441;28;20435;-70
2023/01/17 04:19:59;;;;;;;4.60;2.50;;;;;;;7.13;100.00;91746.72;5071450;28;20052;-69
2023/01/17 04:22:26;;;;;;;3.83;2.17;;;;;;;7.16;100.00;91748.81;5071378;28;20117;-69
2023/01/17 04:24:52;;;;;;;3.90;2.28;;;;;;;7.18;100.00;91752.69;5071016;28;20422;-69
2023/01/17 04:27:20;;;;;;;7.43;2.67;;;;;;;7.19;100.00;91758.59;5071227;28;20133;-69
2023/01/17 04:29:47;;;;;;;5.88;3.30;;;;;;;7.24;100.00;91766.34;5070818;28;20048;-69
2023/01/17 04:32:14;;;;;;;8.50;3.92;;;;;;;7.30;100.00;91762.91;5071164;28;20047;-69
2023/01/17 04:34:41;;;;;;;5.45;3.45;;;;;;;7.31;100.00;91772.09;5070928;28;20045;-69
2023/01/17 04:37:08;;;;;;;4.57;2.40;;;;;;;7.30;100.00;91752.69;5070580;28;20044;-69
2023/01/17 04:39:35;;;;;;;7.82;3.35;;;;;;;7.35;100.00;91741.78;5070804;28;20553;-69
2023/01/17 04:42:02;;;;;;;8.95;3.75;;;;;;;7.29;100.00;91771.56;5070927;28;20049;-69
2023/01/17 04:44:30;;;;;;;9.30;4.18;;;;;;;7.24;100.00;91763.00;5070767;28;20083;-69
2023/01/17 04:46:57;;;;;;;15.27;7.60;;;;;;;7.21;100.00;91757.38;5070877;28;20065;-69
2023/01/17 04:49:24;;;;;;;6.80;3.72;;;;;;;7.24;100.00;91765.56;5070720;28;20044;-69
2023/01/17 04:51:50;;;;;;;5.75;2.80;;;;;;;7.27;100.00;91780.47;5070737;28;20045;-69
2023/01/17 04:54:17;;;;;;;6.45;2.65;;;;;;;7.30;100.00;91790.22;5070795;28;20102;-70
2023/01/17 04:56:44;;;;;;;3.85;2.20;;;;;;;7.27;100.00;91780.47;5070439;28;20052;-70
2023/01/17 04:59:11;;;;;;;3.20;2.25;;;;;;;7.26;100.00;91773.78;5070147;28;20135;-69
2023/01/17 05:01:39;;;;;;;3.63;1.98;;;;;;;7.29;100.00;91786.09;5070541;28;20106;-69
2023/01/17 05:04:06;;;;;;;6.90;3.67;;;;;;;7.26;100.00;91779.66;5070494;28;20044;-69
2023/01/17 05:06:32;;;;;;;6.28;3.45;;;;;;;7.25;100.00;91805.44;5070432;28;20040;-70
2023/01/17 05:09:01;;;;;;;5.00;3.15;;;;;;;7.22;100.00;91793.88;5070087;28;20872;-70
2023/01/17 05:11:28;;;;;;;4.55;2.40;;;;;;;7.18;100.00;91808.88;5069414;28;20059;-70
2023/01/17 05:13:58;;;;;;;4.35;2.90;;;;;;;7.10;100.00;91804.13;5069957;28;20542;-69
2023/01/17 05:16:24;;;;;;;5.25;3.17;;;;;;;7.20;100.00;91813.75;5070262;28;20106;-69
2023/01/17 05:18:53;;;;;;;5.60;2.75;;;;;;;7.13;100.00;91790.88;5070263;28;20110;-69
2023/01/17 05:21:20;;;;;;;5.43;3.03;;;;;;;7.19;100.00;91807.88;5070091;28;20102;-70
2023/01/17 05:23:47;;;;;;;4.35;2.78;;;;;;;7.09;100.00;91803.31;5069827;28;20049;-69
2023/01/17 05:28:58;;;;;;;4.13;1.80;;;;;;;7.11;100.00;91818.44;5070002;28;20135;-69
2023/01/17 05:31:25;;;;;;;2.97;1.45;;;;;;;7.16;100.00;91827.97;5070028;28;20098;-70
2023/01/17 05:33:53;;;;;;;3.17;1.75;;;;;;;7.20;100.00;91827.31;5070020;28;20040;-69
2023/01/17 05:36:20;;;;;;;3.30;1.85;;;;;;;7.17;100.00;91824.44;5069304;28;20045;-69
2023/01/17 05:38:47;;;;;;;3.65;2.67;;;;;;;7.24;100.00;91832.75;5069798;28;20041;-69
2023/01/17 05:41:13;;;;;;;2.97;2.17;;;;;;;7.27;100.00;91824.63;5069586;28;20044;-69
2023/01/17 05:43:40;;;;;;;3.80;2.20;;;;;;;7.30;100.00;91826.75;5057383;28;20455;-69
2023/01/17 05:46:07;;;;;;;4.03;2.30;;;;;;;7.25;100.00;91811.31;5049408;28;20041;-69
2023/01/17 05:48:33;;;;;;;4.25;2.40;;;;;;;7.26;100.00;91810.31;5049693;28;20053;-69
2023/01/17 05:51:01;;;;;;;5.88;2.72;;;;;;;7.25;100.00;91798.56;5049518;28;20496;-69
2023/01/17 05:53:28;;;;;;;3.95;1.90;;;;;;;7.21;100.00;91787.22;5049316;28;20044;-69
2023/01/17 05:55:55;;;;;;;4.68;2.53;;;;;;;7.24;100.00;91797.00;5049533;28;20049;-69
2023/01/17 05:58:22;;;;;;;4.65;2.53;;;;;;;7.20;100.00;91791.56;5049115;28;20061;-69
2023/01/17 06:00:49;;;;;;;5.78;3.08;;;;;;;7.14;100.00;91789.91;5049294;28;20041;-70
2023/01/17 06:03:16;;;;;;;6.82;3.83;;;;;;;7.24;100.00;91789.34;5049505;28;20122;-70
2023/01/17 06:05:43;;;;;;;7.60;4.22;;;;;;;7.26;100.00;91784.78;5049283;28;20044;-69
2023/01/17 06:08:11;;;;;;;6.40;3.97;;;;;;;7.24;100.00;91775.78;5049472;28;20440;-69
2023/01/17 06:10:38;;;;;;;4.30;2.60;;;;;;;7.19;100.00;91779.00;5049345;28;20041;-69
2023/01/17 06:13:07;;;;;;;5.32;2.20;;;;;;;7.12;100.00;91771.47;5049474;28;20098;-69
2023/01/17 06:15:35;;;;;;;7.20;3.58;;;;;;;7.21;100.00;91789.78;5067274;28;20041;-69
2023/01/17 06:18:04;;;;;;;3.63;2.28;;;;;;;7.22;100.00;91778.56;5069136;28;20097;-69
2023/01/17 06:20:32;;;;;;;6.40;2.90;;;;;;;7.25;100.00;91783.22;5065181;28;20040;-69
2023/01/17 06:23:00;;;;;;;3.60;2.25;;;;;;;7.26;100.00;91784.00;5066830;28;20048;-69
2023/01/17 06:25:28;;;;;;;6.25;2.95;;;;;;;7.32;100.00;91801.75;5063334;28;20515;-70
2023/01/17 06:27:55;;;;;;;5.05;2.67;;;;;;;7.31;100.00;91807.88;5067636;28;20045;-69
2023/01/17 06:30:22;;;;;;;5.03;2.10;;;;;;;7.34;100.00;91806.66;5068989;28;20045;-69
2023/01/17 06:32:52;;;;;;;6.05;3.30;;;;;;;7.40;100.00;91802.44;5068630;28;20048;-69
2023/01/17 06:35:19;;;;;;;4.80;2.83;;;;;;;7.40;100.00;91812.66;5069316;28;20434;-69
2023/01/17 06:37:46;;;;;;;6.95;3.17;;;;;;;7.45;100.00;91816.06;5068851;28;20105;-69
2023/01/17 06:40:13;;;;;;;5.55;3.05;;;;;;;7.50;100.00;91820.50;5068902;28;20264;-69
2023/01/17 06:42:41;;;;;;;4.97;2.90;;;;;;;7.55;100.00;91820.59;5068670;28;20078;-69
2023/01/17 06:45:08;;;;;;;5.63;3.75;;;;;;;7.58;100.00;91835.50;5068934;28;20048;-69
2023/01/17 06:47:38;;;;;;;8.57;3.10;;;;;;;7.64;100.00;91833.81;5069277;28;20102;-69
2023/01/17 06:50:05;;;;;;;4.53;2.78;;;;;;;7.64;100.00;91836.34;5069057;28;20114;-69
2023/01/17 06:52:32;;;;;;;5.22;3.03;;;;;;;7.73;100.00;91834.25;5069265;28;20040;-69
2023/01/17 06:54:59;;;;;;;5.63;3.65;;;;;;;7.74;100.00;91841.69;5068910;28;20044;-69
2023/01/17 06:57:26;;;;;;;5.07;3.20;;;;;;;7.81;100.00;91843.31;5068793;28;20048;-69
2023/01/17 06:59:54;;;;;;;4.95;2.97;;;;;;;7.80;100.00;91847.69;5068758;28;20114;-69
2023/01/17 07:02:20;;;;;;;5.85;3.08;;;;;;;7.83;100.00;91849.78;5068887;28;20329;-69
2023/01/17 07:04:47;;;;;;;5.28;3.58;;;;;;;7.80;100.00;91839.22;5068891;28;20095;-69
2023/01/17 07:07:14;;;;;;;8.52;3.15;;;;;;;7.87;100.00;91834.78;5068319;28;20098;-69
2023/01/17 07:09:40;;;;;;;9.98;4.45;;;;;;;7.88;100.00;91831.97;5068801;28;20052;-69
2023/01/17 07:12:07;;;;;;;9.15;4.80;;;;;;;7.91;100.00;91830.75;5067939;28;20049;-69
2023/01/17 07:14:34;;;;;;;6.80;3.63;;;;;;;7.98;100.00;91849.31;5068746;28;20109;-69
2023/01/17 07:17:04;;;;;;;4.53;2.47;;;;;;;7.98;100.00;91833.19;5068339;28;20105;-69
2023/01/17 07:19:33;;;;;;;7.00;2.70;;;;;;;8.06;100.00;91832.03;5068709;28;20091;-69
2023/01/17 07:22:00;;;;;;;5.85;3.60;;;;;;;8.07;100.00;91852.28;5042087;28;20118;-69
2023/01/17 07:24:36;;;;;;;7.60;3.00;;;;;;;8.07;100.00;91838.72;5068450;28;20041;-69
2023/01/17 07:27:03;;;;;;;7.88;3.35;;;;;;;8.08;100.00;91838.47;5068439;28;20083;-69
2023/01/17 07:29:30;;;;;;;4.70;3.05;;;;;;;8.06;100.00;91832.81;5068766;28;20053;-69
2023/01/17 07:31:56;;;;;;;5.85;3.50;;;;;;;8.15;100.00;91856.25;5068777;28;20065;-69
2023/01/17 07:34:24;;;;;;;5.63;3.22;;;;;;;8.18;100.00;91848.13;5068545;28;20098;-69
2023/01/17 07:37:05;;;;;;;6.13;3.08;;;;;;;8.27;100.00;91871.56;5072182;28;20457;-70
2023/01/17 07:39:31;;;;;;;10.57;4.93;;;;;;;8.28;100.00;91871.31;5071936;28;20048;-69
2023/01/17 07:41:58;;;;;;;11.48;4.85;;;;;;;8.35;100.00;91871.19;5072173;28;20098;-69
2023/01/17 07:44:25;;;;;;;8.02;3.78;;;;;;;8.31;100.00;91849.63;5071769;28;20048;-69
2023/01/17 07:46:53;;;;;;;6.47;3.75;;;;;;;8.25;100.00;91851.31;5072206;28;20041;-69
2023/01/17 07:49:20;;;;;;;6.60;3.67;;;;;;;8.34;100.00;91867.06;5071575;28;20048;-69
2023/01/17 07:51:48;;;;;;;6.72;3.22;;;;;;;8.35;100.00;91867.84;5071983;28;20114;-69
2023/01/17 07:54:15;;;;;;;7.90;3.40;;;;;;;8.38;100.00;91863.03;5071411;28;20393;-69
2023/01/17 07:56:44;;;;;;;7.07;3.50;;;;;;;8.40;100.00;91860.28;5071732;28;20456;-69
2023/01/17 07:59:11;;;;;;;9.48;4.13;;;;;;;8.41;100.00;91866.94;5071690;28;20057;-69
2023/01/17 08:01:38;;;;;;;7.53;3.35;;;;;;;8.46;100.00;91856.78;5071873;28;20098;-69
2023/01/17 08:04:04;;;;;;;5.40;3.53;;;;;;;8.48;100.00;91866.81;5071377;28;20048;-69
2023/01/17 08:06:31;;;;;;;8.90;4.18;;;;;;;8.50;100.00;91869.91;5071753;28;20553;-69
2023/01/17 08:08:59;;;;;;;8.20;3.78;;;;;;;8.52;100.00;91868.69;5071631;28;20044;-69
2023/01/17 08:11:26;;;;;;;8.27;4.25;;;;;;;8.51;100.00;91853.53;5071766;28;20094;-69
2023/01/17 08:13:56;;;;;;;10.00;3.47;;;;;;;8.54;100.00;91858.22;5071980;28;20044;-69
2023/01/17 08:16:23;;;;;;;6.85;3.67;;;;;;;8.52;100.00;91870.50;5071382;28;20155;-69
2023/01/17 08:18:50;;;;;;;9.00;3.80;;;;;;;8.48;100.00;91865.00;5071744;28;20128;-69
2023/01/17 08:21:17;;;;;;;7.47;3.53;;;;;;;8.52;100.00;91883.28;5071782;28;20053;-69
2023/01/17 08:23:47;;;;;;;8.25;4.50;;;;;;;8.52;100.00;91886.59;5071536;28;20098;-69
2023/01/17 08:26:20;;;;;;;6.53;3.38;;;;;;;8.54;100.00;91887.16;5071509;28;20048;-69
2023/01/17 08:28:47;;;;;;;7.72;3.70;;;;;;;8.58;100.00;91886.69;5071056;28;20508;-69
2023/01/17 08:31:16;;;;;;;5.00;2.50;;;;;;;8.51;100.00;91892.72;5071695;28;20048;-69
2023/01/17 08:33:43;;;;;;;6.07;2.85;;;;;;;8.57;100.00;91891.06;5057978;28;20041;-69
2023/01/17 08:36:09;;;;;;;6.07;2.80;;;;;;;8.59;100.00;91894.16;5071212;28;20044;-69
2023/01/17 08:38:36;;;;;;;5.68;3.22;;;;;;;8.60;100.00;91890.59;5071171;28;20045;-69
2023/01/17 08:41:03;;;;;;;5.70;3.33;;;;;;;8.64;100.00;91903.69;5071265;28;20101;-69
2023/01/17 08:43:31;;;;;;;7.40;3.58;;;;;;;8.62;100.00;91890.34;5070894;28;20063;-69
2023/01/17 08:45:57;;;;;;;6.22;2.60;;;;;;;8.61;100.00;91899.81;5071146;28;20048;-69
2023/01/17 08:48:24;;;;;;;5.90;3.03;;;;;;;8.67;100.00;91896.31;5071178;28;20122;-69
2023/01/17 08:50:51;;;;;;;5.10;2.90;;;;;;;8.73;100.00;91888.72;5071294;28;20090;-69
2023/01/17 08:53:20;;;;;;;6.75;3.33;;;;;;;8.82;100.00;91892.47;5071011;28;20052;-69
2023/01/17 08:55:47;;;;;;;8.43;2.95;;;;;;;8.81;100.00;91903.72;5070695;28;20052;-69
2023/01/17 08:58:14;;;;;;;10.85;3.42;;;;;;;8.79;100.00;91882.69;5070863;28;20504;-69
2023/01/17 09:00:42;;;;;;;9.30;4.45;;;;;;;8.91;100.00;91900.56;5070501;28;20094;-69
2023/01/17 09:03:12;;;;;;;5.25;2.90;;;;;;;8.78;100.00;91897.28;5070927;28;20045;-69
2023/01/17 09:05:39;;;;;;;5.68;3.03;;;;;;;8.79;100.00;91896.28;5070544;28;20094;-69
2023/01/17 09:08:06;;;;;;;7.07;3.33;;;;;;;8.89;100.00;91892.34;5070371;28;20049;-69
2023/01/17 09:10:33;;;;;;;5.03;3.03;;;;;;;8.88;100.00;91883.09;5070756;28;20056;-69
2023/01/17 09:13:00;;;;;;;9.07;3.60;;;;;;;8.94;100.00;91893.19;5070864;28;20090;-69
2023/01/17 09:18:12;;;;;;;13.57;4.60;;;;;;;9.02;100.00;91899.72;5070268;28;20090;-69
2023/01/17 09:20:38;;;;;;;8.25;3.90;;;;;;;9.00;100.00;91893.25;5070282;28;20090;-69
2023/01/17 09:23:05;;;;;;;7.80;3.20;;;;;;;9.04;100.00;91902.03;5070681;28;20123;-69
2023/01/17 09:25:32;;;;;;;5.65;3.67;;;;;;;9.09;100.00;91887.53;5070378;28;20161;-69
2023/01/17 09:27:59;;;;;;;7.18;3.47;;;;;;;9.13;100.00;91877.59;5070457;28;20048;-69
2023/01/17 09:30:25;;;;;;;12.00;4.22;;;;;;;9.23;100.00;91876.97;5069784;28;20657;-69
2023/01/17 09:32:53;;;;;;;11.25;4.63;;;;;;;9.23;100.00;91846.22;5070476;28;20040;-69
2023/01/17 09:35:21;;;;;;;6.53;2.88;;;;;;;9.33;100.00;91864.31;5069973;28;20041;-69
2023/01/17 09:37:49;;;;;;;6.30;3.38;;;;;;;9.36;100.00;91874.06;5069895;28;20090;-69
2023/01/17 09:40:20;;;;;;;8.30;3.35;;;;;;;9.45;100.00;91866.00;5069684;28;20055;-69
2023/01/17 09:42:50;;;;;;;11.93;3.10;;;;;;;9.52;100.00;91869.16;5070424;28;20050;-69
2023/01/17 09:45:19;;;;;;;5.85;2.90;;;;;;;9.58;100.00;91870.03;5069835;28;20044;-69
2023/01/17 09:47:50;;;;;;;5.07;2.63;;;;;;;9.62;100.00;91883.91;5070136;28;20098;-70
2023/01/17 09:50:26;;;;;;;10.13;2.85;;;;;;;9.68;100.00;91880.38;5052963;28;20237;-70
2023/01/17 09:52:59;;;;;;;6.05;2.60;;;;;;;9.74;100.00;91894.84;5049725;28;20102;-70
2023/01/17 09:55:29;;;;;;;7.00;3.15;;;;;;;9.76;100.00;91903.06;5057187;28;20052;-69
2023/01/17 09:58:02;;;;;;;7.13;2.40;;;;;;;9.81;100.00;91886.97;5067978;28;20061;-69
2023/01/17 10:00:55;;;;;;;5.22;2.35;;;;;;;9.64;100.00;91861.38;5068973;28;20051;-69
2023/01/17 10:03:43;;;;;;;5.85;2.70;;;;;;;9.87;100.00;91898.84;5068698;28;20539;-69
2023/01/17 10:06:32;;;;;;;7.85;2.83;;;;;;;9.86;100.00;91879.34;5069247;28;20048;-69
2023/01/17 10:09:15;;;;;;;5.97;2.30;;;;;;;9.93;100.00;91881.75;5041758;28;20119;-69
2023/01/17 10:11:55;;;;;;;7.00;3.10;;;;;;;10.00;100.00;91886.69;5063750;28;20098;-70
2023/01/17 10:15:12;;;;;;;8.10;2.10;;;;;;;9.99;100.00;91885.13;5069569;28;20044;-69
2023/01/17 10:17:51;;;;;;;13.95;6.47;;;;;;;10.06;100.00;91890.09;4986478;28;20046;-69
2023/01/17 10:20:42;;;;;;;33.75;20.38;;;;;;;10.08;100.00;91885.47;5051073;28;20513;-70
2023/01/17 10:23:29;;;;;;;14.70;8.88;;;;;;;10.06;100.00;91888.31;5058570;28;20049;-70
2023/01/17 10:26:00;;;;;;;10.10;6.35;;;;;;;10.05;100.00;91897.03;5047082;28;20053;-70
2023/01/17 10:28:33;;;;;;;8.70;4.22;;;;;;;10.08;100.00;91900.88;5068651;28;20053;-70
2023/01/17 10:31:05;;;;;;;18.63;4.55;;;;;;;10.08;100.00;91901.66;5069206;28;20106;-70
2023/01/17 10:33:39;;;;;;;9.38;5.28;;;;;;;9.99;100.00;91892.81;5064219;28;20048;-69
2023/01/17 10:36:14;;;;;;;16.75;7.50;;;;;;;9.97;100.00;91895.66;5067455;28;20094;-70
2023/01/17 10:38:46;;;;;;;42.97;28.42;;;;;;;9.96;100.00;91886.38;5043810;28;20520;-70
2023/01/17 10:41:19;;;;;;;30.00;18.13;;;;;;;9.98;100.00;91879.25;5069201;28;20419;-70
2023/01/17 10:43:56;;;;;;;21.10;12.18;;;;;;;9.98;100.00;91878.44;5069010;28;20525;-70
2023/01/17 10:46:27;;;;;;;23.67;14.70;;;;;;;10.05;100.00;91880.84;5068648;28;20470;-70
2023/01/17 10:48:55;;;;;;;6.28;4.35;;;;;;;9.94;100.00;91872.25;5068742;28;20398;-70
2023/01/17 10:51:43;;;;;;;9.40;5.60;;;;;;;9.97;100.00;91872.56;5055661;28;20075;-70
2023/01/17 10:54:23;;;;;;;7.82;3.92;;;;;;;9.97;100.00;91871.78;5068586;28;20094;-70
2023/01/17 10:56:50;;;;;;;9.40;4.22;;;;;;;9.94;100.00;91872.25;5068198;28;20489;-70
2023/01/17 10:59:22;;;;;;;7.78;5.07;;;;;;;9.95;100.00;91866.13;5068616;28;20088;-70
2023/01/17 11:01:48;;;;;;;7.57;4.68;;;;;;;9.95;100.00;91874.56;5068411;28;20088;-70
2023/01/17 11:04:20;;;;;;;7.20;4.22;;;;;;;10.03;100.00;91870.81;5068674;28;20153;-70
2023/01/17 11:06:47;;;;;;;12.18;5.60;;;;;;;10.08;100.00;91883.72;5068482;28;20041;-70
2023/01/17 11:09:16;;;;;;;8.00;4.60;;;;;;;10.05;100.00;91870.59;5068507;28;20098;-70
2023/01/17 11:11:50;;;;;;;7.55;3.95;;;;;;;10.05;100.00;91860.31;5072533;28;20127;-70
2023/01/17 11:14:20;;;;;;;6.15;3.67;;;;;;;10.07;100.00;91863.41;5047170;28;20049;-70
2023/01/17 11:16:59;;;;;;;5.05;2.80;;;;;;;9.81;100.00;91822.84;5072359;28;20526;-70
2023/01/17 11:19:31;;;;;;;5.72;3.08;;;;;;;10.11;100.00;91861.94;5072664;28;20523;-70
2023/01/17 11:22:01;;;;;;;5.05;3.40;;;;;;;10.23;100.00;91856.69;5072408;28;20131;-70
2023/01/17 11:24:35;;;;;;;8.63;6.53;;;;;;;10.32;100.00;91862.16;5072952;28;20048;-70
2023/01/17 11:27:05;;;;;;;8.75;6.25;;;;;;;10.35;100.00;91857.31;5072442;28;20058;-70
2023/01/17 11:29:34;;;;;;;10.63;6.82;;;;;;;10.37;100.00;91862.97;5072150;28;20044;-70
2023/01/17 11:32:29;;;;;;;18.92;11.18;;;;;;;10.46;100.00;91860.78;5071972;28;20496;-69
2023/01/17 11:35:18;;;;;;;7.97;5.13;;;;;;;10.42;100.00;91852.75;5072373;28;20098;-70
2023/01/17 11:37:50;;;;;;;8.05;4.47;;;;;;;10.40;100.00;91848.88;5072272;28;20045;-70
2023/01/17 11:40:24;;;;;;;10.93;5.32;;;;;;;10.27;100.00;91842.31;5071959;28;20589;-70
2023/01/17 11:43:01;;;;;;;6.97;3.42;;;;;;;10.29;100.00;91842.88;5047290;28;20053;-70
2023/01/17 11:45:29;;;;;;;11.45;8.43;;;;;;;10.29;100.00;91845.44;5070165;28;20443;-69
2023/01/17 11:48:10;;;;;;;14.75;11.18;;;;;;;10.31;100.00;91838.25;5061573;28;20052;-70
2023/01/17 11:50:38;;;;;;;7.18;3.55;;;;;;;10.29;100.00;91825.66;5071946;28;20040;-70
2023/01/17 11:53:07;;;;;;;15.18;7.32;;;;;;;10.34;100.00;91840.38;5072375;28;20379;-70
2023/01/17 11:55:35;;;;;;;16.98;7.45;;;;;;;10.26;100.00;91828.72;5071953;28;20040;-69
2023/01/17 11:58:02;;;;;;;8.45;3.45;;;;;;;10.12;100.00;91819.84;5071804;28;20471;-70
2023/01/17 12:00:36;;;;;;;14.95;6.72;;;;;;;10.18;100.00;91826.59;5055875;28;20094;-71
2023/01/17 12:03:20;;;;;;;35.08;14.02;;;;;;;10.25;100.00;91822.06;5060200;28;20110;-71
2023/01/17 12:05:58;;;;;;;7.40;3.15;;;;;;;10.22;100.00;91807.13;5063355;28;20052;-69
2023/01/17 12:08:56;;;;;;;6.82;3.67;;;;;;;10.25;100.00;91811.78;5054503;28;20049;-69
2023/01/17 12:11:36;;;;;;;5.97;3.30;;;;;;;10.28;100.00;91811.28;5064433;28;20045;-68
2023/01/17 12:14:15;;;;;;;6.50;3.20;;;;;;;10.28;100.00;91800.28;5069616;28;20135;-69
2023/01/17 12:16:59;;;;;;;22.52;9.70;;;;;;;10.28;100.00;91798.47;5058515;28;20044;-70
2023/01/17 12:19:36;;;;;;;12.68;5.03;;;;;;;10.31;100.00;91804.16;5071983;28;20056;-70
2023/01/17 12:22:22;;;;;;;11.80;5.30;;;;;;;10.37;100.00;91790.34;5070792;28;20116;-70
2023/01/17 12:25:07;;;;;;;5.97;2.95;;;;;;;10.43;100.00;91772.19;5071838;28;20048;-71
2023/01/17 12:27:46;;;;;;;36.45;13.30;;;;;;;10.49;100.00;91788.41;5049963;28;20090;-70
2023/01/17 12:30:31;;;;;;;19.00;7.18;;;;;;;10.50;100.00;91784.81;5071487;28;20062;-71
2023/01/17 12:33:18;;;;;;;13.75;4.00;;;;;;;10.47;100.00;91780.19;5071713;28;20044;-70
2023/01/17 12:35:51;;;;;;;9.25;3.70;;;;;;;10.52;100.00;91774.31;5048541;28;20127;-71
2023/01/17 12:38:25;;;;;;;13.65;5.10;;;;;;;10.58;100.00;91765.63;5071075;28;20520;-70
2023/01/17 12:41:00;;;;;;;12.20;4.93;;;;;;;10.59;100.00;91767.19;5071022;28;20098;-70
2023/01/17 12:43:32;;;;;;;9.55;3.97;;;;;;;10.61;100.00;91767.72;5071044;28;20040;-70
2023/01/17 12:46:03;;;;;;;11.98;5.88;;;;;;;10.63;100.00;91757.97;5070991;28;20415;-70
2023/01/17 12:48:35;;;;;;;11.85;5.82;;;;;;;10.74;100.00;91761.38;5071356;28;20045;-70
2023/01/17 12:51:08;;;;;;;23.52;8.38;;;;;;;10.63;100.00;91741.78;5070998;28;20109;-70
2023/01/17 12:53:42;;;;;;;25.38;10.23;;;;;;;10.80;100.00;91765.53;5071213;28;20045;-70
2023/01/17 12:56:14;;;;;;;34.55;11.60;;;;;;;10.77;100.00;91762.69;5070989;28;20462;-70
2023/01/17 12:58:46;;;;;;;14.35;6.00;;;;;;;10.80;100.00;91764.75;5070678;28;20056;-70
2023/01/17 13:01:21;;;;;;;110.75;37.95;;;;;;;10.73;100.00;91744.41;5070422;28;20036;-70
2023/01/17 13:04:00;;;;;;;22.98;9.77;;;;;;;10.80;100.00;91757.81;5071118;28;20102;-70
2023/01/17 13:06:45;;;;;;;22.05;11.48;;;;;;;10.80;100.00;91757.81;5070602;28;20045;-70
2023/01/17 13:09:17;;;;;;;9.70;4.53;;;;;;;10.77;100.00;91760.91;5070782;28;20094;-70